sensor_id;sensor_type;location;lat;lon;timestamp;P1;durP1;ratioP1;P2;durP2;ratioP2
34557;SDS011;24708;48.888;8.736;2023-04-24T05:31:34;3.28;;;2.58;;
34557;SDS011;24708;48.888;8.736;2023-04-24T05:34:02;5.97;;;2.00;;
34557;SDS011;24708;48.888;8.736;2023-04-24T05:36:29;4.50;;;2.00;;
34557;SDS011;24708;48.888;8.736;2023-04-24T05:38:57;2.30;;;1.58;;
34557;SDS011;24708;48.888;8.736;2023-04-24T05:41:25;2.08;;;1.38;;
34557;SDS011;24708;48.888;8.736;2023-04-24T05:43:52;2.53;;;1.40;;
34557;SDS011;24708;48.888;8.736;2023-04-24T05:46:20;2.90;;;1.92;;
34557;SDS011;24708;48.888;8.736;2023-04-24T05:48:47;4.13;;;2.10;;
34557;SDS011;24708;48.888;8.736;2023-04-24T05:51:15;5.05;;;1.48;;
34557;SDS011;24708;48.888;8.736;2023-04-24T05:53:43;2.13;;;1.13;;
34557;SDS011;24708;48.888;8.736;2023-04-24T05:56:11;2.05;;;1.67;;
34557;SDS011;24708;48.888;8.736;2023-04-24T05:58:38;2.67;;;1.55;;
34557;SDS011;24708;48.888;8.736;2023-04-24T06:01:07;1.85;;;1.45;;
34557;SDS011;24708;48.888;8.736;2023-04-24T06:03:36;2.42;;;1.48;;
34557;SDS011;24708;48.888;8.736;2023-04-24T06:06:05;2.85;;;1.17;;
34557;SDS011;24708;48.888;8.736;2023-04-24T06:08:34;4.85;;;1.52;;
34557;SDS011;24708;48.888;8.736;2023-04-24T06:11:02;2.55;;;1.40;;
34557;SDS011;24708;48.888;8.736;2023-04-24T06:13:30;1.20;;;1.10;;
34557;SDS011;24708;48.888;8.736;2023-04-24T06:16:03;1.77;;;1.45;;
34557;SDS011;24708;48.888;8.736;2023-04-24T06:18:44;2.65;;;1.40;;
34557;SDS011;24708;48.888;8.736;2023-04-24T06:21:20;2.80;;;1.60;;
34557;SDS011;24708;48.888;8.736;2023-04-24T06:24:12;1.17;;;1.02;;
34557;SDS011;24708;48.888;8.736;2023-04-24T06:26:48;1.65;;;1.08;;
34557;SDS011;24708;48.888;8.736;2023-04-24T06:29:20;2.15;;;1.08;;
34557;SDS011;24708;48.888;8.736;2023-04-24T06:32:05;2.38;;;1.65;;
34557;SDS011;24708;48.888;8.736;2023-04-24T06:34:34;4.13;;;1.30;;
34557;SDS011;24708;48.888;8.736;2023-04-24T06:37:03;3.35;;;1.38;;
34557;SDS011;24708;48.888;8.736;2023-04-24T06:39:31;3.83;;;1.77;;
34557;SDS011;24708;48.888;8.736;2023-04-24T06:42:00;1.77;;;1.00;;
34557;SDS011;24708;48.888;8.736;2023-04-24T06:44:29;1.60;;;1.02;;
34557;SDS011;24708;48.888;8.736;2023-04-24T06:46:57;1.95;;;1.42;;
34557;SDS011;24708;48.888;8.736;2023-04-24T06:49:26;4.28;;;1.70;;
34557;SDS011;24708;48.888;8.736;2023-04-24T06:51:54;3.03;;;2.10;;
34557;SDS011;24708;48.888;8.736;2023-04-24T06:54:22;2.10;;;1.55;;
34557;SDS011;24708;48.888;8.736;2023-04-24T06:56:50;5.18;;;1.75;;
34557;SDS011;24708;48.888;8.736;2023-04-24T06:59:21;1.90;;;1.25;;
34557;SDS011;24708;48.888;8.736;2023-04-24T07:01:52;6.82;;;1.30;;
34557;SDS011;24708;48.888;8.736;2023-04-24T07:04:21;1.15;;;1.00;;
34557;SDS011;24708;48.888;8.736;2023-04-24T07:06:49;3.10;;;1.25;;
34557;SDS011;24708;48.888;8.736;2023-04-24T07:09:18;2.90;;;1.17;;
34557;SDS011;24708;48.888;8.736;2023-04-24T07:11:47;1.45;;;1.15;;
34557;SDS011;24708;48.888;8.736;2023-04-24T07:14:16;2.15;;;1.00;;
34557;SDS011;24708;48.888;8.736;2023-04-24T07:16:46;4.15;;;1.00;;
34557;SDS011;24708;48.888;8.736;2023-04-24T07:19:14;1.98;;;1.30;;
34557;SDS011;24708;48.888;8.736;2023-04-24T07:21:42;1.55;;;1.13;;
34557;SDS011;24708;48.888;8.736;2023-04-24T07:24:09;4.22;;;1.75;;
34557;SDS011;24708;48.888;8.736;2023-04-24T07:26:39;3.10;;;1.20;;
34557;SDS011;24708;48.888;8.736;2023-04-24T07:29:07;4.03;;;2.60;;
34557;SDS011;24708;48.888;8.736;2023-04-24T07:31:35;4.72;;;2.00;;
34557;SDS011;24708;48.888;8.736;2023-04-24T07:34:03;6.80;;;1.73;;
34557;SDS011;24708;48.888;8.736;2023-04-24T07:36:30;2.15;;;1.45;;
34557;SDS011;24708;48.888;8.736;2023-04-24T07:38:58;8.38;;;3.53;;
34557;SDS011;24708;48.888;8.736;2023-04-24T07:41:26;6.03;;;1.58;;
34557;SDS011;24708;48.888;8.736;2023-04-24T07:43:55;6.75;;;1.45;;
34557;SDS011;24708;48.888;8.736;2023-04-24T07:46:23;1.90;;;1.15;;
34557;SDS011;24708;48.888;8.736;2023-04-24T07:48:51;8.13;;;2.03;;
34557;SDS011;24708;48.888;8.736;2023-04-24T07:51:38;17.17;;;1.95;;
34557;SDS011;24708;48.888;8.736;2023-04-24T07:54:06;1.60;;;1.02;;
34557;SDS011;24708;48.888;8.736;2023-04-24T07:56:38;3.58;;;1.00;;
34557;SDS011;24708;48.888;8.736;2023-04-24T07:59:12;6.30;;;1.02;;
34557;SDS011;24708;48.888;8.736;2023-04-24T08:01:41;7.10;;;1.50;;
34557;SDS011;24708;48.888;8.736;2023-04-24T08:04:10;1.73;;;0.85;;
34557;SDS011;24708;48.888;8.736;2023-04-24T08:06:39;2.90;;;0.77;;
34557;SDS011;24708;48.888;8.736;2023-04-24T08:09:07;4.85;;;1.20;;
34557;SDS011;24708;48.888;8.736;2023-04-24T08:11:37;1.90;;;0.88;;
34557;SDS011;24708;48.888;8.736;2023-04-24T08:14:06;1.98;;;0.80;;
34557;SDS011;24708;48.888;8.736;2023-04-24T08:16:34;2.70;;;0.70;;
34557;SDS011;24708;48.888;8.736;2023-04-24T08:19:03;2.63;;;0.80;;
34557;SDS011;24708;48.888;8.736;2023-04-24T08:21:31;1.80;;;0.75;;
34557;SDS011;24708;48.888;8.736;2023-04-24T08:23:59;3.28;;;0.50;;
34557;SDS011;24708;48.888;8.736;2023-04-24T08:26:31;0.85;;;0.50;;
34557;SDS011;24708;48.888;8.736;2023-04-24T08:29:00;1.92;;;0.38;;
34557;SDS011;24708;48.888;8.736;2023-04-24T08:31:31;0.63;;;0.43;;
34557;SDS011;24708;48.888;8.736;2023-04-24T08:33:59;3.05;;;0.63;;
34557;SDS011;24708;48.888;8.736;2023-04-24T08:36:28;0.60;;;0.43;;
34557;SDS011;24708;48.888;8.736;2023-04-24T08:39:12;5.13;;;1.23;;
34557;SDS011;24708;48.888;8.736;2023-04-24T08:41:41;1.52;;;0.77;;
34557;SDS011;24708;48.888;8.736;2023-04-24T08:46:43;1.30;;;0.90;;
34557;SDS011;24708;48.888;8.736;2023-04-24T08:49:16;8.02;;;0.75;;
34557;SDS011;24708;48.888;8.736;2023-04-24T08:51:45;4.25;;;0.77;;
34557;SDS011;24708;48.888;8.736;2023-04-24T08:54:16;5.43;;;0.77;;
34557;SDS011;24708;48.888;8.736;2023-04-24T08:56:47;0.47;;;0.43;;
34557;SDS011;24708;48.888;8.736;2023-04-24T08:59:16;3.00;;;0.55;;
34557;SDS011;24708;48.888;8.736;2023-04-24T09:01:44;4.20;;;2.17;;
34557;SDS011;24708;48.888;8.736;2023-04-24T09:04:15;1.50;;;0.50;;
34557;SDS011;24708;48.888;8.736;2023-04-24T09:06:45;8.35;;;0.70;;
34557;SDS011;24708;48.888;8.736;2023-04-24T09:09:13;2.30;;;0.80;;
34557;SDS011;24708;48.888;8.736;2023-04-24T09:11:44;4.35;;;1.05;;
34557;SDS011;24708;48.888;8.736;2023-04-24T09:14:13;1.25;;;0.82;;
34557;SDS011;24708;48.888;8.736;2023-04-24T09:16:41;2.63;;;1.02;;
34557;SDS011;24708;48.888;8.736;2023-04-24T09:19:08;7.28;;;0.93;;
34557;SDS011;24708;48.888;8.736;2023-04-24T09:21:36;2.20;;;1.08;;
34557;SDS011;24708;48.888;8.736;2023-04-24T09:24:05;0.90;;;0.55;;
34557;SDS011;24708;48.888;8.736;2023-04-24T09:26:41;1.63;;;0.50;;
34557;SDS011;24708;48.888;8.736;2023-04-24T09:29:14;1.23;;;0.55;;
34557;SDS011;24708;48.888;8.736;2023-04-24T09:31:43;2.47;;;0.80;;
34557;SDS011;24708;48.888;8.736;2023-04-24T09:34:12;0.95;;;0.55;;
34557;SDS011;24708;48.888;8.736;2023-04-24T09:36:41;2.55;;;0.50;;
34557;SDS011;24708;48.888;8.736;2023-04-24T09:39:11;2.50;;;0.40;;
34557;SDS011;24708;48.888;8.736;2023-04-24T09:41:55;0.77;;;0.43;;
34557;SDS011;24708;48.888;8.736;2023-04-24T09:44:27;1.42;;;0.55;;
34557;SDS011;24708;48.888;8.736;2023-04-24T09:46:56;3.30;;;0.60;;
34557;SDS011;24708;48.888;8.736;2023-04-24T09:49:27;2.55;;;1.00;;
34557;SDS011;24708;48.888;8.736;2023-04-24T09:52:03;2.58;;;0.75;;
34557;SDS011;24708;48.888;8.736;2023-04-24T09:54:33;1.00;;;0.60;;
34557;SDS011;24708;48.888;8.736;2023-04-24T09:57:06;2.20;;;0.90;;
34557;SDS011;24708;48.888;8.736;2023-04-24T09:59:46;5.95;;;1.05;;
34557;SDS011;24708;48.888;8.736;2023-04-24T10:02:39;1.02;;;0.68;;
34557;SDS011;24708;48.888;8.736;2023-04-24T10:05:28;2.30;;;0.98;;
34557;SDS011;24708;48.888;8.736;2023-04-24T10:10:34;9.80;;;1.70;;
34557;SDS011;24708;48.888;8.736;2023-04-24T10:16:10;3.47;;;1.30;;
34557;SDS011;24708;48.888;8.736;2023-04-24T10:19:02;1.95;;;1.17;;
34557;SDS011;24708;48.888;8.736;2023-04-24T10:21:37;3.65;;;1.17;;
34557;SDS011;24708;48.888;8.736;2023-04-24T10:24:10;2.85;;;1.30;;
34557;SDS011;24708;48.888;8.736;2023-04-24T10:26:43;3.63;;;1.10;;
34557;SDS011;24708;48.888;8.736;2023-04-24T10:29:16;2.15;;;1.30;;
34557;SDS011;24708;48.888;8.736;2023-04-24T10:31:46;2.25;;;1.17;;
34557;SDS011;24708;48.888;8.736;2023-04-24T10:34:15;3.08;;;1.73;;
34557;SDS011;24708;48.888;8.736;2023-04-24T10:36:48;2.53;;;1.70;;
34557;SDS011;24708;48.888;8.736;2023-04-24T10:39:21;4.15;;;1.60;;
34557;SDS011;24708;48.888;8.736;2023-04-24T10:41:54;3.05;;;1.30;;
34557;SDS011;24708;48.888;8.736;2023-04-24T10:44:25;2.40;;;1.60;;
34557;SDS011;24708;48.888;8.736;2023-04-24T10:47:04;2.90;;;1.05;;
34557;SDS011;24708;48.888;8.736;2023-04-24T10:49:33;1.15;;;1.02;;
34557;SDS011;24708;48.888;8.736;2023-04-24T10:52:03;4.32;;;1.13;;
34557;SDS011;24708;48.888;8.736;2023-04-24T10:54:45;4.35;;;1.20;;
34557;SDS011;24708;48.888;8.736;2023-04-24T11:00:11;2.17;;;0.95;;
34557;SDS011;24708;48.888;8.736;2023-04-24T11:02:42;5.20;;;2.55;;
34557;SDS011;24708;48.888;8.736;2023-04-24T11:05:16;4.38;;;0.98;;
34557;SDS011;24708;48.888;8.736;2023-04-24T11:10:45;5.95;;;1.38;;
34557;SDS011;24708;48.888;8.736;2023-04-24T11:13:16;2.73;;;0.80;;
34557;SDS011;24708;48.888;8.736;2023-04-24T11:18:50;2.08;;;1.30;;
34557;SDS011;24708;48.888;8.736;2023-04-24T11:21:22;2.22;;;1.30;;
34557;SDS011;24708;48.888;8.736;2023-04-24T11:23:49;9.27;;;2.03;;
34557;SDS011;24708;48.888;8.736;2023-04-24T11:26:18;3.72;;;1.75;;
34557;SDS011;24708;48.888;8.736;2023-04-24T11:28:47;2.53;;;1.50;;
34557;SDS011;24708;48.888;8.736;2023-04-24T11:34:07;6.85;;;1.83;;
34557;SDS011;24708;48.888;8.736;2023-04-24T11:36:35;8.18;;;2.17;;
34557;SDS011;24708;48.888;8.736;2023-04-24T11:39:03;3.22;;;1.58;;
34557;SDS011;24708;48.888;8.736;2023-04-24T11:41:31;5.13;;;2.08;;
34557;SDS011;24708;48.888;8.736;2023-04-24T11:44:00;7.40;;;1.70;;
34557;SDS011;24708;48.888;8.736;2023-04-24T11:46:34;14.85;;;1.52;;
34557;SDS011;24708;48.888;8.736;2023-04-24T11:49:10;1.73;;;1.25;;
34557;SDS011;24708;48.888;8.736;2023-04-24T11:51:48;2.85;;;1.60;;
34557;SDS011;24708;48.888;8.736;2023-04-24T11:54:21;8.10;;;1.60;;
34557;SDS011;24708;48.888;8.736;2023-04-24T11:56:53;3.30;;;1.40;;
34557;SDS011;24708;48.888;8.736;2023-04-24T11:59:20;2.55;;;1.45;;
34557;SDS011;24708;48.888;8.736;2023-04-24T12:01:48;2.67;;;1.20;;
34557;SDS011;24708;48.888;8.736;2023-04-24T12:04:17;1.55;;;1.45;;
34557;SDS011;24708;48.888;8.736;2023-04-24T12:06:58;3.80;;;1.38;;
34557;SDS011;24708;48.888;8.736;2023-04-24T12:09:27;4.15;;;1.20;;
34557;SDS011;24708;48.888;8.736;2023-04-24T12:11:55;1.85;;;1.23;;
34557;SDS011;24708;48.888;8.736;2023-04-24T12:14:24;5.68;;;1.67;;
34557;SDS011;24708;48.888;8.736;2023-04-24T12:16:52;3.10;;;1.33;;
34557;SDS011;24708;48.888;8.736;2023-04-24T12:19:21;3.95;;;2.00;;
34557;SDS011;24708;48.888;8.736;2023-04-24T12:21:59;2.58;;;1.63;;
34557;SDS011;24708;48.888;8.736;2023-04-24T12:24:34;2.80;;;1.60;;
34557;SDS011;24708;48.888;8.736;2023-04-24T12:27:05;2.95;;;1.92;;
34557;SDS011;24708;48.888;8.736;2023-04-24T12:29:33;2.22;;;1.70;;
34557;SDS011;24708;48.888;8.736;2023-04-24T12:32:03;2.80;;;1.48;;
34557;SDS011;24708;48.888;8.736;2023-04-24T12:34:32;2.08;;;1.13;;
34557;SDS011;24708;48.888;8.736;2023-04-24T12:37:09;2.92;;;2.45;;
34557;SDS011;24708;48.888;8.736;2023-04-24T12:39:38;3.35;;;2.45;;
34557;SDS011;24708;48.888;8.736;2023-04-24T12:42:06;3.05;;;2.30;;
34557;SDS011;24708;48.888;8.736;2023-04-24T12:44:34;5.38;;;2.00;;
34557;SDS011;24708;48.888;8.736;2023-04-24T12:47:03;2.35;;;2.00;;
34557;SDS011;24708;48.888;8.736;2023-04-24T12:49:31;4.78;;;1.90;;
34557;SDS011;24708;48.888;8.736;2023-04-24T12:52:16;3.05;;;1.90;;
34557;SDS011;24708;48.888;8.736;2023-04-24T12:54:46;3.63;;;2.13;;
34557;SDS011;24708;48.888;8.736;2023-04-24T12:57:14;2.40;;;1.85;;
34557;SDS011;24708;48.888;8.736;2023-04-24T12:59:46;3.83;;;2.13;;
34557;SDS011;24708;48.888;8.736;2023-04-24T13:02:14;2.90;;;1.98;;
34557;SDS011;24708;48.888;8.736;2023-04-24T13:04:47;4.25;;;2.17;;
34557;SDS011;24708;48.888;8.736;2023-04-24T13:07:15;6.55;;;2.42;;
34557;SDS011;24708;48.888;8.736;2023-04-24T13:09:43;5.25;;;1.85;;
34557;SDS011;24708;48.888;8.736;2023-04-24T13:12:11;2.80;;;1.92;;
34557;SDS011;24708;48.888;8.736;2023-04-24T13:14:39;4.45;;;2.20;;
34557;SDS011;24708;48.888;8.736;2023-04-24T13:17:07;3.25;;;1.98;;
34557;SDS011;24708;48.888;8.736;2023-04-24T13:19:37;7.72;;;2.38;;
34557;SDS011;24708;48.888;8.736;2023-04-24T13:22:05;2.67;;;2.17;;
34557;SDS011;24708;48.888;8.736;2023-04-24T13:24:33;9.65;;;2.00;;
34557;SDS011;24708;48.888;8.736;2023-04-24T13:27:03;3.55;;;2.22;;
34557;SDS011;24708;48.888;8.736;2023-04-24T13:29:31;4.60;;;2.20;;
34557;SDS011;24708;48.888;8.736;2023-04-24T13:31:58;3.40;;;2.03;;
34557;SDS011;24708;48.888;8.736;2023-04-24T13:34:27;3.00;;;1.92;;
34557;SDS011;24708;48.888;8.736;2023-04-24T13:36:55;2.83;;;2.17;;
34557;SDS011;24708;48.888;8.736;2023-04-24T13:39:24;2.45;;;1.90;;
34557;SDS011;24708;48.888;8.736;2023-04-24T13:41:54;3.25;;;2.58;;
34557;SDS011;24708;48.888;8.736;2023-04-24T13:44:22;3.47;;;1.90;;
34557;SDS011;24708;48.888;8.736;2023-04-24T13:46:51;2.90;;;2.10;;
34557;SDS011;24708;48.888;8.736;2023-04-24T13:49:22;3.63;;;2.08;;
34557;SDS011;24708;48.888;8.736;2023-04-24T13:51:54;6.60;;;1.67;;
34557;SDS011;24708;48.888;8.736;2023-04-24T13:54:22;5.80;;;2.00;;
34557;SDS011;24708;48.888;8.736;2023-04-24T13:56:52;3.17;;;1.80;;
34557;SDS011;24708;48.888;8.736;2023-04-24T13:59:20;3.42;;;2.15;;
34557;SDS011;24708;48.888;8.736;2023-04-24T14:01:50;3.22;;;1.40;;
34557;SDS011;24708;48.888;8.736;2023-04-24T14:04:17;2.20;;;1.50;;
34557;SDS011;24708;48.888;8.736;2023-04-24T14:06:45;2.13;;;1.48;;
34557;SDS011;24708;48.888;8.736;2023-04-24T14:09:13;2.40;;;1.80;;
34557;SDS011;24708;48.888;8.736;2023-04-24T14:11:41;3.40;;;1.90;;
34557;SDS011;24708;48.888;8.736;2023-04-24T14:14:08;2.15;;;1.50;;
34557;SDS011;24708;48.888;8.736;2023-04-24T14:16:36;4.30;;;1.70;;
34557;SDS011;24708;48.888;8.736;2023-04-24T14:19:04;2.60;;;1.95;;
34557;SDS011;24708;48.888;8.736;2023-04-24T14:21:32;2.35;;;1.50;;
34557;SDS011;24708;48.888;8.736;2023-04-24T14:24:00;2.47;;;1.83;;
34557;SDS011;24708;48.888;8.736;2023-04-24T14:26:27;3.38;;;1.55;;
34557;SDS011;24708;48.888;8.736;2023-04-24T14:28:55;2.13;;;1.77;;
34557;SDS011;24708;48.888;8.736;2023-04-24T14:31:40;2.28;;;1.23;;
34557;SDS011;24708;48.888;8.736;2023-04-24T14:34:08;3.97;;;2.05;;
34557;SDS011;24708;48.888;8.736;2023-04-24T14:36:36;4.20;;;1.88;;
34557;SDS011;24708;48.888;8.736;2023-04-24T14:39:04;4.35;;;1.83;;
34557;SDS011;24708;48.888;8.736;2023-04-24T14:41:34;2.10;;;1.88;;
34557;SDS011;24708;48.888;8.736;2023-04-24T14:44:03;3.55;;;2.10;;
34557;SDS011;24708;48.888;8.736;2023-04-24T14:46:30;5.28;;;2.35;;
34557;SDS011;24708;48.888;8.736;2023-04-24T14:48:58;2.22;;;2.03;;
34557;SDS011;24708;48.888;8.736;2023-04-24T14:51:26;4.65;;;1.90;;
34557;SDS011;24708;48.888;8.736;2023-04-24T14:53:55;2.25;;;1.55;;
34557;SDS011;24708;48.888;8.736;2023-04-24T14:56:23;1.52;;;1.15;;
34557;SDS011;24708;48.888;8.736;2023-04-24T14:58:50;3.22;;;1.85;;
34557;SDS011;24708;48.888;8.736;2023-04-24T15:01:18;1.73;;;1.40;;
34557;SDS011;24708;48.888;8.736;2023-04-24T15:03:53;3.35;;;1.63;;
34557;SDS011;24708;48.888;8.736;2023-04-24T15:06:21;2.15;;;1.50;;
34557;SDS011;24708;48.888;8.736;2023-04-24T15:08:48;2.63;;;1.70;;
34557;SDS011;24708;48.888;8.736;2023-04-24T15:11:16;5.43;;;1.98;;
34557;SDS011;24708;48.888;8.736;2023-04-24T15:13:44;2.38;;;2.17;;
34557;SDS011;24708;48.888;8.736;2023-04-24T15:16:12;3.22;;;2.40;;
34557;SDS011;24708;48.888;8.736;2023-04-24T15:18:40;1.70;;;1.60;;
34557;SDS011;24708;48.888;8.736;2023-04-24T15:21:08;4.32;;;1.40;;
34557;SDS011;24708;48.888;8.736;2023-04-24T15:23:36;2.72;;;1.42;;
34557;SDS011;24708;48.888;8.736;2023-04-24T15:26:03;1.77;;;1.50;;
34557;SDS011;24708;48.888;8.736;2023-04-24T15:28:31;2.80;;;2.28;;
34557;SDS011;24708;48.888;8.736;2023-04-24T15:30:58;3.95;;;1.70;;
34557;SDS011;24708;48.888;8.736;2023-04-24T15:33:26;2.03;;;1.60;;
34557;SDS011;24708;48.888;8.736;2023-04-24T15:35:53;2.70;;;1.55;;
34557;SDS011;24708;48.888;8.736;2023-04-24T15:38:21;2.50;;;1.65;;
34557;SDS011;24708;48.888;8.736;2023-04-24T15:40:49;1.90;;;1.63;;
34557;SDS011;24708;48.888;8.736;2023-04-24T15:43:16;2.22;;;1.92;;
34557;SDS011;24708;48.888;8.736;2023-04-24T15:45:44;2.60;;;1.70;;
34557;SDS011;24708;48.888;8.736;2023-04-24T15:48:11;2.72;;;1.75;;
34557;SDS011;24708;48.888;8.736;2023-04-24T15:50:39;3.58;;;1.80;;
34557;SDS011;24708;48.888;8.736;2023-04-24T15:53:07;1.92;;;1.65;;
34557;SDS011;24708;48.888;8.736;2023-04-24T15:55:34;2.90;;;1.90;;
34557;SDS011;24708;48.888;8.736;2023-04-24T15:58:02;11.35;;;2.25;;
